createdAt,value
2018-11-11T00:02:15.331Z,98715.72
2018-11-11T00:04:48.908Z,98713.33
2018-11-11T00:07:20.814Z,98716.27
2018-11-11T00:09:52.860Z,98718.39
2018-11-11T00:12:24.572Z,98710.41
2018-11-11T00:14:56.346Z,98722.34
2018-11-11T00:17:28.123Z,98715.72
2018-11-11T00:19:59.838Z,98720.78
2018-11-11T00:22:32.127Z,98718.17
2018-11-11T00:25:04.321Z,98721.64
2018-11-11T00:27:37.138Z,98716.58
2018-11-11T00:30:11.152Z,98718.97
2018-11-11T00:32:43.030Z,98717.90
2018-11-11T00:35:14.491Z,98722.92
2018-11-11T00:37:46.188Z,98715.27
2018-11-11T00:40:18.290Z,98720.29
2018-11-11T00:42:50.189Z,98719.77
2018-11-11T00:45:22.066Z,98717.13
2018-11-11T00:47:54.288Z,98712.66
2018-11-11T00:50:26.665Z,98726.94
2018-11-11T00:52:58.329Z,98721.64
2018-11-11T00:55:36.725Z,98743.25
2018-11-11T00:58:08.729Z,98741.66
2018-11-11T01:00:41.388Z,98743.53
2018-11-11T01:03:13.299Z,98756.13
2018-11-11T01:05:44.964Z,98758.23
2018-11-11T01:08:16.992Z,98756.33
2018-11-11T01:10:48.879Z,98759.00
2018-11-11T01:13:20.985Z,98762.44
2018-11-11T01:15:53.436Z,98762.72
2018-11-11T01:18:25.343Z,98764.03
2018-11-11T01:20:57.204Z,98770.10
2018-11-11T01:23:29.071Z,98771.39
2018-11-11T01:26:02.136Z,98771.94
2018-11-11T01:28:34.830Z,98768.75
2018-11-11T01:31:06.587Z,98780.86
2018-11-11T01:33:38.886Z,98782.37
2018-11-11T01:36:10.975Z,98772.59
2018-11-11T01:38:42.995Z,98778.39
2018-11-11T01:41:16.560Z,98682.80
2018-11-11T01:43:48.730Z,98772.52
2018-11-11T01:46:20.650Z,98777.23
2018-11-11T01:48:53.163Z,98781.70
2018-11-11T01:51:25.167Z,98792.80
2018-11-11T01:53:57.365Z,98788.30
2018-11-11T01:56:29.701Z,98790.09
2018-11-11T01:59:01.482Z,98803.78
2018-11-11T02:01:33.623Z,98794.31
2018-11-11T02:04:05.696Z,98794.23
2018-11-11T02:06:37.632Z,98807.12
2018-11-11T02:09:12.459Z,98796.82
2018-11-11T02:11:44.579Z,98784.92
2018-11-11T02:14:16.499Z,98785.16
2018-11-11T02:16:48.339Z,98788.08
2018-11-11T02:19:20.966Z,98787.28
2018-11-11T02:21:53.434Z,98690.86
2018-11-11T02:24:25.287Z,98778.86
2018-11-11T02:26:57.053Z,98782.57
2018-11-11T02:29:28.551Z,98782.85
2018-11-11T02:32:00.612Z,98778.91
2018-11-11T02:34:32.669Z,98777.62
2018-11-11T02:37:04.549Z,98782.37
2018-11-11T02:39:36.325Z,98784.73
2018-11-11T02:42:08.231Z,98784.21
2018-11-11T02:44:40.267Z,98783.50
2018-11-11T02:47:12.669Z,98768.20
2018-11-11T02:49:44.467Z,98783.50
2018-11-11T02:52:15.903Z,98791.68
2018-11-11T02:54:48.843Z,98786.17
2018-11-11T02:57:20.538Z,98799.67
2018-11-11T02:59:52.525Z,98802.55
2018-11-11T03:02:25.193Z,98804.14
2018-11-11T03:05:00.948Z,98798.63
2018-11-11T03:07:32.587Z,98804.19
2018-11-11T03:10:05.189Z,98800.55
2018-11-11T03:12:37.110Z,98725.41
2018-11-11T03:15:10.399Z,98794.72
2018-11-11T03:17:41.952Z,98740.90
2018-11-11T03:20:14.853Z,98800.59
2018-11-11T03:22:46.723Z,98792.68
2018-11-11T03:25:18.904Z,98791.88
2018-11-11T03:27:50.634Z,98792.95
2018-11-11T03:30:22.380Z,98793.96
2018-11-11T03:32:54.177Z,98795.28
2018-11-11T03:35:26.634Z,98802.95
2018-11-11T03:37:59.547Z,98798.75
2018-11-11T03:40:32.445Z,98803.43
2018-11-11T03:43:05.449Z,98808.17
2018-11-11T03:45:38.360Z,98811.33
2018-11-11T03:48:10.036Z,98810.53
2018-11-11T03:50:41.422Z,98808.06
2018-11-11T03:53:13.312Z,98806.51
2018-11-11T03:55:44.887Z,98815.81
2018-11-11T03:58:17.400Z,98819.72
2018-11-11T04:00:49.099Z,98815.38
2018-11-11T04:03:20.374Z,98804.28
2018-11-11T04:05:52.357Z,98803.62
2018-11-11T04:08:24.686Z,98719.52
2018-11-11T04:10:56.434Z,98817.36
2018-11-11T04:13:27.889Z,98821.86
2018-11-11T04:15:59.653Z,98816.60
2018-11-11T04:18:31.258Z,98815.97
2018-11-11T04:21:02.788Z,98823.36
2018-11-11T04:23:35.484Z,98821.19
2018-11-11T04:26:07.387Z,98813.80
2018-11-11T04:28:41.341Z,98822.55
2018-11-11T04:31:13.736Z,98827.02
2018-11-11T04:33:45.445Z,98820.73
2018-11-11T04:36:17.510Z,98825.75
2018-11-11T04:38:49.285Z,98832.85
2018-11-11T04:41:20.960Z,98845.20
2018-11-11T04:43:52.441Z,98744.42
2018-11-11T04:46:24.616Z,98836.82
2018-11-11T04:48:56.209Z,98831.04
2018-11-11T04:51:28.443Z,98829.39
2018-11-11T04:53:59.991Z,98831.75
2018-11-11T04:56:31.544Z,98822.92
2018-11-11T04:59:03.608Z,98822.05
2018-11-11T05:01:36.545Z,98820.09
2018-11-11T05:04:08.992Z,98722.66
2018-11-11T05:06:40.747Z,98827.70
2018-11-11T05:09:14.338Z,98833.13
2018-11-11T05:11:46.042Z,98825.73
2018-11-11T05:14:17.695Z,98825.75
2018-11-11T05:16:49.601Z,98824.13
2018-11-11T05:19:21.288Z,98837.30
2018-11-11T05:21:52.997Z,98833.00
2018-11-11T05:24:24.751Z,98836.13
2018-11-11T05:26:56.915Z,98830.30
2018-11-11T05:29:28.665Z,98837.60
2018-11-11T05:32:00.915Z,98835.13
2018-11-11T05:34:32.990Z,98840.75
2018-11-11T05:37:05.570Z,98844.47
2018-11-11T05:39:37.573Z,98837.11
2018-11-11T05:42:09.151Z,98831.83
2018-11-11T05:44:40.844Z,98836.77
2018-11-11T05:47:12.646Z,98838.84
2018-11-11T05:49:44.539Z,98835.30
2018-11-11T05:52:16.105Z,98842.25
2018-11-11T05:54:49.385Z,98842.28
2018-11-11T05:57:21.321Z,98830.34
2018-11-11T05:59:53.076Z,98834.50
2018-11-11T06:02:24.796Z,98830.05
2018-11-11T06:04:56.731Z,98826.53
2018-11-11T06:07:28.458Z,98833.13
2018-11-11T06:10:00.770Z,98845.05
2018-11-11T06:12:32.894Z,98753.88
2018-11-11T06:15:04.525Z,98835.98
2018-11-11T06:17:36.901Z,98841.64
2018-11-11T06:20:11.142Z,98831.27
2018-11-11T06:22:43.121Z,98823.62
2018-11-11T06:25:16.092Z,98837.20
2018-11-11T06:27:47.646Z,98835.27
2018-11-11T06:30:19.243Z,98831.85
2018-11-11T06:32:50.814Z,98828.18
2018-11-11T06:35:22.301Z,98820.05
2018-11-11T06:37:53.974Z,98838.56
2018-11-11T06:40:25.805Z,98833.78
2018-11-11T06:42:57.872Z,98826.66
2018-11-11T06:45:30.742Z,98828.70
2018-11-11T06:48:02.413Z,98827.34
2018-11-11T06:50:35.558Z,98839.88
2018-11-11T06:53:07.476Z,98842.27
2018-11-11T06:55:39.186Z,98845.58
2018-11-11T06:58:10.770Z,98844.78
2018-11-11T07:00:42.482Z,98847.95
2018-11-11T07:03:24.245Z,98864.66
2018-11-11T07:05:56.060Z,98866.70
2018-11-11T07:08:28.154Z,98866.99
2018-11-11T07:10:59.897Z,98865.68
2018-11-11T07:13:31.334Z,98861.31
2018-11-11T07:16:05.412Z,98859.42
2018-11-11T07:18:37.851Z,98848.72
2018-11-11T07:21:09.646Z,98836.45
2018-11-11T07:23:41.551Z,98836.96
2018-11-11T07:26:13.613Z,98846.49
2018-11-11T07:28:44.843Z,98847.80
2018-11-11T07:31:16.308Z,98849.84
2018-11-11T07:33:47.834Z,98858.18
2018-11-11T07:36:19.479Z,98869.41
2018-11-11T07:38:51.415Z,98867.98
2018-11-11T07:41:22.806Z,98875.92
2018-11-11T07:43:53.944Z,98877.09
2018-11-11T07:46:26.070Z,98876.86
2018-11-11T07:48:57.842Z,98894.80
2018-11-11T07:51:29.238Z,98909.16
2018-11-11T07:54:01.719Z,98918.32
2018-11-11T07:56:34.095Z,98925.75
2018-11-11T07:59:05.493Z,98939.73
2018-11-11T08:01:37.561Z,98947.19
2018-11-11T08:04:11.987Z,98948.56
2018-11-11T08:06:43.059Z,98936.45
2018-11-11T08:09:15.072Z,98948.89
2018-11-11T08:12:23.583Z,98952.69
2018-11-11T08:14:55.551Z,98952.28
2018-11-11T08:17:28.001Z,98953.72
2018-11-11T08:20:00.523Z,98960.28
2018-11-11T08:22:34.127Z,98967.32
2018-11-11T08:25:06.480Z,98973.52
2018-11-11T08:27:37.806Z,98983.63
2018-11-11T08:30:11.152Z,98983.20
2018-11-11T08:32:42.298Z,98973.05
2018-11-11T08:35:14.875Z,98985.51
2018-11-11T08:37:47.016Z,98995.74
2018-11-11T08:40:21.003Z,99008.10
2018-11-11T08:42:53.236Z,98999.12
2018-11-11T08:45:25.752Z,99004.09
2018-11-11T08:47:56.790Z,99027.48
2018-11-11T08:50:28.537Z,99037.64
2018-11-11T08:53:01.321Z,99036.47
2018-11-11T08:55:33.016Z,99047.56
2018-11-11T08:58:05.627Z,99051.28
2018-11-11T09:00:37.289Z,99038.16
2018-11-11T09:03:08.688Z,99045.08
2018-11-11T09:05:41.581Z,99037.28
2018-11-11T09:08:13.973Z,99031.95
2018-11-11T09:10:45.833Z,99025.58
2018-11-11T09:13:20.283Z,99016.88
2018-11-11T09:15:52.454Z,98998.73
2018-11-11T09:18:25.764Z,99025.97
2018-11-11T09:20:56.970Z,99015.47
2018-11-11T09:23:28.468Z,99015.32
2018-11-11T09:26:00.276Z,99014.73
2018-11-11T09:28:31.363Z,99013.25
2018-11-11T09:31:03.600Z,99016.13
2018-11-11T09:33:37.144Z,99019.78
2018-11-11T09:36:13.686Z,99032.40
2018-11-11T09:38:45.959Z,99010.67
2018-11-11T09:41:21.781Z,99027.17
2018-11-11T09:43:55.095Z,99040.73
2018-11-11T09:46:29.527Z,99033.77
2018-11-11T09:49:01.697Z,99009.84
2018-11-11T09:51:33.223Z,99006.17
2018-11-11T09:54:06.522Z,99001.07
2018-11-11T09:56:44.708Z,99000.41
2018-11-11T09:59:18.043Z,98994.74
2018-11-11T10:01:50.090Z,98992.82
2018-11-11T10:04:26.427Z,98996.68
2018-11-11T10:13:29.974Z,98988.44
2018-11-11T10:16:07.863Z,98986.03
2018-11-11T10:18:47.395Z,98980.48
2018-11-11T10:22:26.679Z,98994.80
2018-11-11T10:25:05.313Z,98982.81
2018-11-11T10:27:44.049Z,98975.56
2018-11-11T10:30:19.973Z,98967.47
2018-11-11T10:33:05.389Z,98880.52
2018-11-11T10:35:48.730Z,98962.71
2018-11-11T10:38:25.601Z,98960.12
2018-11-11T10:41:08.270Z,98961.03
2018-11-11T10:43:47.336Z,98963.71
2018-11-11T10:52:43.717Z,98871.24
2018-11-11T10:55:15.178Z,98960.48
2018-11-11T10:57:47.133Z,98899.55
2018-11-11T11:00:24.856Z,98966.97
2018-11-11T11:02:58.544Z,98840.95
2018-11-11T11:05:30.268Z,98894.33
2018-11-11T11:08:02.116Z,98965.97
2018-11-11T11:10:34.172Z,98918.77
2018-11-11T11:13:08.421Z,98974.25
2018-11-11T11:15:41.404Z,98971.47
2018-11-11T11:18:13.974Z,98979.41
2018-11-11T11:20:47.433Z,98990.31
2018-11-11T11:23:22.724Z,98997.46
2018-11-11T11:25:54.248Z,98987.16
2018-11-11T11:28:28.157Z,98984.25
2018-11-11T11:30:59.755Z,98997.67
2018-11-11T11:33:32.766Z,98980.73
2018-11-11T11:36:04.462Z,98968.63
2018-11-11T11:38:36.115Z,98961.46
2018-11-11T11:41:08.117Z,98959.66
2018-11-11T11:43:40.290Z,98871.43
2018-11-11T11:46:12.113Z,98948.33
2018-11-11T11:48:44.780Z,98971.02
2018-11-11T11:51:16.205Z,98958.56
2018-11-11T11:53:48.025Z,98957.55
2018-11-11T11:56:20.857Z,98968.41
2018-11-11T11:58:52.330Z,98957.80
2018-11-11T12:02:01.775Z,98958.34
2018-11-11T12:04:34.220Z,98961.84
2018-11-11T12:07:05.512Z,98957.93
2018-11-11T12:09:38.127Z,98975.14
2018-11-11T12:12:09.386Z,98976.98
2018-11-11T12:14:40.883Z,98986.82
2018-11-11T12:17:12.145Z,98991.07
2018-11-11T12:19:43.604Z,99000.06
2018-11-11T12:22:14.848Z,98997.16
2018-11-11T12:24:46.511Z,99003.20
2018-11-11T12:27:18.227Z,99018.48
2018-11-11T12:29:49.316Z,99012.65
2018-11-11T12:32:20.433Z,99015.53
2018-11-11T12:34:53.580Z,99015.23
2018-11-11T12:37:25.175Z,99008.66
2018-11-11T12:39:56.526Z,99010.25
2018-11-11T12:42:28.324Z,99011.28
2018-11-11T12:45:01.060Z,99013.46
2018-11-11T12:47:32.428Z,99023.02
2018-11-11T12:50:04.215Z,99024.89
2018-11-11T12:52:36.091Z,99037.62
2018-11-11T12:55:07.862Z,99032.33
2018-11-11T12:57:39.225Z,99030.04
2018-11-11T13:00:14.092Z,99027.13
2018-11-11T13:02:45.339Z,99029.52
2018-11-11T13:05:18.051Z,99029.76
2018-11-11T13:07:49.825Z,99030.78
2018-11-11T13:10:20.998Z,99029.20
2018-11-11T13:12:54.901Z,99034.02
2018-11-11T13:15:27.510Z,99028.46
2018-11-11T13:17:59.273Z,99022.12
2018-11-11T13:27:31.525Z,99017.36
2018-11-11T13:30:02.725Z,99028.73
2018-11-11T13:32:34.512Z,99028.20
2018-11-11T13:35:06.868Z,99041.23
2018-11-11T13:37:39.551Z,98954.33
2018-11-11T13:40:13.752Z,99040.70
2018-11-11T13:42:44.757Z,99050.50
2018-11-11T13:45:19.968Z,99048.38
2018-11-11T13:47:51.685Z,99054.22
2018-11-11T13:50:25.010Z,99052.88
2018-11-11T13:52:56.311Z,99046.22
2018-11-11T13:55:29.943Z,99057.35
2018-11-11T13:58:01.141Z,99044.88
2018-11-11T14:00:32.238Z,99056.23
2018-11-11T14:03:04.301Z,99067.84
2018-11-11T14:05:35.837Z,99069.95
2018-11-11T14:08:07.106Z,99081.30
2018-11-11T14:10:38.631Z,99079.97
2018-11-11T14:13:10.295Z,99094.81
2018-11-11T14:15:42.902Z,99096.09
2018-11-11T14:18:14.327Z,99095.29
2018-11-11T14:20:45.578Z,99103.39
2018-11-11T14:23:17.294Z,99115.77
2018-11-11T14:25:49.846Z,99118.05
2018-11-11T14:28:21.143Z,99110.59
2018-11-11T14:30:53.279Z,99109.17
2018-11-11T14:33:25.449Z,99094.30
2018-11-11T14:35:58.906Z,99096.84
2018-11-11T14:38:30.786Z,99088.05
2018-11-11T14:41:04.083Z,99083.52
2018-11-11T14:43:36.319Z,99087.69
2018-11-11T14:46:08.068Z,99092.66
2018-11-11T14:48:40.027Z,99085.70
2018-11-11T14:51:11.221Z,99077.41
2018-11-11T14:53:42.945Z,98901.03
2018-11-11T14:56:14.600Z,99077.17
2018-11-11T14:58:46.359Z,99070.77
2018-11-11T15:01:17.837Z,99076.57
2018-11-11T15:03:49.096Z,99082.61
2018-11-11T15:06:20.945Z,99014.59
2018-11-11T15:08:52.955Z,99082.66
2018-11-11T15:11:25.153Z,99074.22
2018-11-11T15:13:57.243Z,99082.94
2018-11-11T15:16:30.527Z,99078.16
2018-11-11T15:19:02.590Z,99085.81
2018-11-11T15:21:34.716Z,99088.93
2018-11-11T15:24:06.537Z,99082.32
2018-11-11T15:26:38.665Z,99078.05
2018-11-11T15:29:10.598Z,99069.33
2018-11-11T15:31:41.749Z,99076.45
2018-11-11T15:34:13.299Z,99067.20
2018-11-11T15:36:44.768Z,99061.92
2018-11-11T15:39:16.712Z,99061.04
2018-11-11T15:41:48.155Z,99056.79
2018-11-11T15:44:19.337Z,99066.50
2018-11-11T15:46:51.661Z,99073.89
2018-11-11T15:49:22.891Z,99064.86
2018-11-11T15:51:53.948Z,99061.13
2018-11-11T15:54:25.200Z,99064.01
2018-11-11T15:56:59.045Z,99069.05
2018-11-11T15:59:30.755Z,99065.65
2018-11-11T16:02:02.005Z,99072.77
2018-11-11T16:04:33.354Z,99076.20
2018-11-11T16:07:04.555Z,99071.45
2018-11-11T16:09:37.133Z,99086.75
2018-11-11T16:12:10.963Z,99060.33
2018-11-11T16:14:43.822Z,99055.05
2018-11-11T16:17:15.621Z,99061.83
2018-11-11T16:19:48.841Z,99067.06
2018-11-11T16:22:23.589Z,99069.64
2018-11-11T16:24:56.086Z,99069.04
2018-11-11T16:27:28.119Z,99070.54
2018-11-11T16:29:59.514Z,99076.57
2018-11-11T16:32:31.008Z,99077.36
2018-11-11T16:35:02.289Z,99085.28
2018-11-11T16:37:34.981Z,99091.92
2018-11-11T16:40:07.492Z,99099.55
2018-11-11T16:42:39.771Z,99107.99
2018-11-11T16:45:14.225Z,99116.41
2018-11-11T16:47:46.779Z,99128.05
2018-11-11T16:50:24.724Z,99143.12
2018-11-11T16:52:57.674Z,99141.52
2018-11-11T16:55:30.306Z,99136.66
2018-11-11T16:58:02.236Z,99150.91
2018-11-11T17:00:35.240Z,99155.99
2018-11-11T17:03:11.728Z,99148.36
2018-11-11T17:05:44.531Z,99141.77
2018-11-11T17:08:16.597Z,99146.25
2018-11-11T17:10:47.892Z,99141.24
2018-11-11T17:13:19.891Z,99136.20
2018-11-11T17:15:50.985Z,99149.92
2018-11-11T17:18:22.820Z,99150.73
2018-11-11T17:20:54.916Z,99135.98
2018-11-11T17:23:26.245Z,99130.42
2018-11-11T17:25:57.374Z,99139.94
2018-11-11T17:28:28.510Z,99147.29
2018-11-11T17:30:59.915Z,99157.38
2018-11-11T17:33:31.456Z,99165.23
2018-11-11T17:36:03.835Z,99162.42
2018-11-11T17:38:35.480Z,99169.58
2018-11-11T17:41:08.223Z,99174.86
2018-11-11T17:43:39.856Z,99199.94
2018-11-11T17:46:11.511Z,99177.22
2018-11-11T17:48:43.383Z,99186.75
2018-11-11T17:51:14.921Z,99181.22
2018-11-11T17:53:46.767Z,99166.72
2018-11-11T17:56:18.500Z,99165.86
2018-11-11T17:58:49.655Z,99164.87
2018-11-11T18:01:21.525Z,99152.43
2018-11-11T18:03:52.739Z,99149.03
2018-11-11T18:06:23.799Z,99151.73
2018-11-11T18:08:55.779Z,99149.63
2018-11-11T18:11:28.129Z,99153.41
2018-11-11T18:14:00.167Z,99156.62
2018-11-11T18:16:33.086Z,99162.70
2018-11-11T18:19:05.077Z,99166.41
2018-11-11T18:21:37.165Z,99162.51
2018-11-11T18:24:08.699Z,99164.16
2018-11-11T18:26:40.264Z,99167.88
2018-11-11T18:29:11.940Z,99163.69
2018-11-11T18:31:43.949Z,99158.36
2018-11-11T18:34:16.000Z,99148.83
2018-11-11T18:36:49.068Z,99148.79
2018-11-11T18:39:20.694Z,99148.50
2018-11-11T18:41:52.782Z,99142.94
2018-11-11T18:44:25.613Z,99146.61
2018-11-11T18:46:57.318Z,99146.84
2018-11-11T18:49:28.908Z,99142.55
2018-11-11T18:52:01.795Z,99147.84
2018-11-11T18:54:33.301Z,99161.64
2018-11-11T18:57:06.150Z,99147.55
2018-11-11T18:59:39.137Z,99158.39
2018-11-11T19:02:10.804Z,99156.03
2018-11-11T19:04:42.892Z,99153.34
2018-11-11T19:07:14.083Z,99160.45
2018-11-11T19:09:45.589Z,99162.02
2018-11-11T19:12:16.868Z,99161.77
2018-11-11T19:14:48.806Z,99158.67
2018-11-11T19:17:22.577Z,99157.83
2018-11-11T19:19:53.740Z,99157.06
2018-11-11T19:22:25.703Z,99158.61
2018-11-11T19:24:57.428Z,99161.96
2018-11-11T19:27:28.829Z,99166.44
2018-11-11T19:30:02.550Z,99158.23
2018-11-11T19:32:34.230Z,99168.50
2018-11-11T19:35:05.776Z,99151.39
2018-11-11T19:37:37.591Z,99158.80
2018-11-11T19:40:11.594Z,99165.41
2018-11-11T19:42:46.308Z,99172.00
2018-11-11T19:45:19.560Z,99173.13
2018-11-11T19:47:51.051Z,99164.94
2018-11-11T19:50:23.311Z,99167.80
2018-11-11T19:52:56.226Z,99162.77
2018-11-11T19:55:28.627Z,99165.16
2018-11-11T19:58:02.298Z,99154.79
2018-11-11T20:00:36.604Z,99153.47
2018-11-11T20:03:09.444Z,99145.55
2018-11-11T20:05:40.610Z,99137.36
2018-11-11T20:08:12.650Z,99142.00
2018-11-11T20:10:44.849Z,99138.65
2018-11-11T20:13:16.734Z,99148.67
2018-11-11T20:15:48.644Z,99149.48
2018-11-11T20:18:21.869Z,99154.23
2018-11-11T20:20:54.551Z,99164.50
2018-11-11T20:23:28.812Z,99171.05
2018-11-11T20:25:59.954Z,99181.88
2018-11-11T20:28:32.123Z,99188.05
2018-11-11T20:31:04.468Z,99191.21
2018-11-11T20:33:36.197Z,99181.62
2018-11-11T20:36:08.757Z,99146.67
2018-11-11T20:38:41.769Z,99187.30
2018-11-11T20:41:14.401Z,99184.77
2018-11-11T20:43:46.541Z,99162.34
2018-11-11T20:46:17.941Z,99165.63
2018-11-11T20:48:51.309Z,99167.69
2018-11-11T20:51:22.444Z,99178.78
2018-11-11T20:53:55.792Z,99173.74
2018-11-11T20:56:27.517Z,99182.89
2018-11-11T20:59:00.838Z,99185.99
2018-11-11T21:01:31.963Z,99194.70
2018-11-11T21:04:03.196Z,99210.49
2018-11-11T21:06:34.652Z,99216.89
2018-11-11T21:09:09.515Z,99215.06
2018-11-11T21:11:40.951Z,99213.23
2018-11-11T21:14:13.212Z,99215.92
2018-11-11T21:16:45.032Z,99221.65
2018-11-11T21:19:18.111Z,99211.59
2018-11-11T21:21:49.897Z,99205.19
2018-11-11T21:24:21.434Z,99202.84
2018-11-11T21:26:52.511Z,99207.23
2018-11-11T21:29:23.646Z,99197.20
2018-11-11T21:31:54.690Z,99197.98
2018-11-11T21:34:27.149Z,99195.23
2018-11-11T21:36:58.764Z,99198.59
2018-11-11T21:39:31.602Z,99186.42
2018-11-11T21:42:02.729Z,99189.59
2018-11-11T21:44:34.108Z,99185.91
2018-11-11T21:47:06.711Z,99195.38
2018-11-11T21:49:39.593Z,99192.49
2018-11-11T21:52:11.549Z,99193.09
2018-11-11T21:54:42.700Z,99194.44
2018-11-11T21:57:14.508Z,99199.16
2018-11-11T21:59:47.340Z,99211.55
2018-11-11T22:02:19.078Z,99211.61
2018-11-11T22:04:50.358Z,99211.55
2018-11-11T22:07:21.694Z,99205.91
2018-11-11T22:09:53.239Z,99211.78
2018-11-11T22:12:24.292Z,99208.39
2018-11-11T22:14:58.259Z,99214.23
2018-11-11T22:17:30.971Z,99034.75
2018-11-11T22:20:02.533Z,99213.14
2018-11-11T22:22:34.305Z,99222.97
2018-11-11T22:25:06.958Z,99220.92
2018-11-11T22:27:38.534Z,99234.67
2018-11-11T22:30:12.268Z,99239.95
2018-11-11T22:32:44.047Z,99236.50
2018-11-11T22:35:17.022Z,99244.41
2018-11-11T22:37:48.415Z,99238.91
2018-11-11T22:40:20.299Z,99260.30
2018-11-11T22:42:51.963Z,99255.55
2018-11-11T22:45:23.763Z,99266.08
2018-11-11T22:47:55.557Z,99259.05
2018-11-11T22:50:27.228Z,99257.27
2018-11-11T22:52:59.016Z,99261.66
2018-11-11T22:55:31.560Z,99241.59
2018-11-11T22:58:04.511Z,99254.33
2018-11-11T23:00:37.001Z,99255.14
2018-11-11T23:03:10.589Z,99245.52
2018-11-11T23:05:42.096Z,99250.72
2018-11-11T23:08:14.784Z,99241.48
2018-11-11T23:10:46.206Z,99249.42
2018-11-11T23:13:18.219Z,99247.63
2018-11-11T23:15:49.474Z,99243.76
2018-11-11T23:18:21.075Z,99258.15
2018-11-11T23:20:53.141Z,99251.31
2018-11-11T23:23:25.108Z,99263.42
2018-11-11T23:25:56.851Z,99280.42
2018-11-11T23:28:28.419Z,99279.97
2018-11-11T23:31:00.179Z,99289.84
2018-11-11T23:33:32.294Z,99294.89
2018-11-11T23:36:04.870Z,99294.98
2018-11-11T23:38:36.398Z,99304.83
2018-11-11T23:41:08.240Z,99311.19
2018-11-11T23:43:40.405Z,99316.52
2018-11-11T23:46:12.063Z,99254.70
2018-11-11T23:48:44.046Z,99345.46
2018-11-11T23:51:16.220Z,99369.34
2018-11-11T23:53:47.773Z,99392.66
2018-11-11T23:56:20.845Z,99391.67
2018-11-11T23:58:52.975Z,99388.76
